Leandra — V2EB4 — position and weather

sailwx.info

Track history (hours):
 
Tides and Currents Weather Stations Pressure Air Temp Water Temp Dewpoint Dewpoint Depression Visibility Wind Speed Wind Dir Waves Ship Positions

Leandra

Last reported at 2015-Sep-04 13:27 UTC. Time now 2015-Sep-05 10:18 UTC.
Position N 37°00' E 003°09'.

Length 146 m; draft 5.9 m.

Type: Cargo ship. MMSI: 305375000.

Date/timePositionNaut miles runAvg speedWind from/ knotsBaromVisibWave heightAir tempDewpointWater temp
2015-Sep-04 13:27N 37°00' E 003°09'177 4.3
2015-Sep-02 20:31N 35°51' W 000°14'16 3.7
2015-Sep-02 16:13N 35°56' E 000°05'2 0.1
2015-Sep-01 12:30N 35°58' E 000°04'69 4.8
2015-Aug-31 22:17N 36°49' E 001°01'912.0
2015-Aug-31 21:33N 36°50' E 001°12'2512.3
2015-Aug-31 19:32N 36°54' E 001°43'1312.9
2015-Aug-31 18:33N 36°56' E 001°58'1312.8
2015-Aug-31 17:33N 36°57' E 002°14'1212.3
2015-Aug-31 16:33N 36°59' E 002°29'1212.1
2015-Aug-31 15:34N 37°01' E 002°44'1212.0
2015-Aug-31 14:33N 37°02' E 002°59'1211.9
2015-Aug-31 13:33N 37°04' E 003°14'1211.8
2015-Aug-31 12:31N 37°06' E 003°29'1312.1
2015-Aug-31 11:28N 37°08' E 003°45'1111.8
2015-Aug-31 10:33N 37°09' E 003°58'1211.7
2015-Aug-31 09:31N 37°11' E 004°13'7511.9
2015-Aug-31 03:13N 37°22' E 005°46'11612.0
2015-Aug-30 17:32N 37°38' E 008°11'1212.3
2015-Aug-30 16:33N 37°40' E 008°26'1212.1
2015-Aug-30 15:33N 37°41' E 008°41'1212.1
2015-Aug-30 14:32N 37°43' E 008°57'1212.2
2015-Aug-30 13:32N 37°42' E 009°12'1212.2
2015-Aug-30 12:33N 37°41' E 009°28'1212.1
2015-Aug-30 11:33N 37°40' E 009°43'1211.7
2015-Aug-30 10:33N 37°40' E 009°58'1211.6
2015-Aug-30 09:33N 37°39' E 010°12'1211.7
2015-Aug-30 08:33N 37°36' E 010°26'1211.7
2015-Aug-30 07:33N 37°34' E 010°41'1111.4
2015-Aug-30 06:33N 37°31' E 010°55'2511.5
2015-Aug-30 04:21N 37°21' E 011°24'1012.0
2015-Aug-30 03:32N 37°17' E 011°35'1212.0
2015-Aug-30 02:33N 37°11' E 011°48'1211.7
2015-Aug-30 01:33N 37°05' E 012°01'1111.4
2015-Aug-30 00:33N 36°58' E 012°12'1311.4
2015-Aug-29 23:24N 36°51' E 012°26'1011.7
2015-Aug-29 22:33N 36°45' E 012°36'1211.7
2015-Aug-29 21:31N 36°38' E 012°48'1411.9
2015-Aug-29 20:19N 36°29' E 013°02'2511.9
2015-Aug-29 18:14N 36°15' E 013°27'1011.9
2015-Aug-29 17:25N 36°09' E 013°37'1011.6
2015-Aug-29 16:33N 36°03' E 013°47'1211.6
2015-Aug-29 15:33N 35°56' E 013°59'1211.7
2015-Aug-29 14:33N 35°49' E 014°10'1211.5
2015-Aug-29 13:33N 35°43' E 014°23'10 9.5
2015-Aug-29 12:29N 35°47' E 014°34'1 1.3
2015-Aug-29 11:33N 35°47' E 014°36'6 5.5
2015-Aug-29 10:33N 35°50' E 014°41'6 5.4
2015-Aug-29 09:32N 35°54' E 014°46'0 0.0
2015-Aug-29 08:32N 35°54' E 014°46'0 0.0
2015-Aug-29 07:32N 35°54' E 014°46'0 0.0
2015-Aug-29 06:32N 35°54' E 014°46'0 0.0
2015-Aug-29 05:32N 35°54' E 014°46'0 0.0
2015-Aug-29 04:32N 35°54' E 014°46'0 0.0
2015-Aug-29 03:29N 35°54' E 014°46'0 0.0
2015-Aug-29 02:29N 35°54' E 014°46'0 0.0
2015-Aug-29 01:32N 35°54' E 014°46'0 0.0
2015-Aug-29 00:32N 35°54' E 014°46'0 0.0
2015-Aug-28 23:32N 35°54' E 014°46'0 0.0
2015-Aug-28 22:32N 35°54' E 014°46'0 0.0
2015-Aug-28 21:31N 35°54' E 014°46'0 0.0
2015-Aug-28 20:31N 35°54' E 014°46'0 0.1
2015-Aug-28 19:31N 35°54' E 014°46'0 0.0
2015-Aug-28 18:31N 35°54' E 014°46'0 0.0
2015-Aug-28 17:31N 35°54' E 014°46'0 0.0
2015-Aug-28 16:31N 35°54' E 014°46'0 0.0
2015-Aug-28 15:31N 35°54' E 014°46'0 0.0
2015-Aug-28 14:31N 35°54' E 014°46'0 0.0
2015-Aug-28 13:31N 35°54' E 014°46'0 0.0
2015-Aug-28 12:31N 35°54' E 014°46'0 0.0
2015-Aug-28 11:31N 35°54' E 014°46'0 0.0
2015-Aug-28 10:31N 35°54' E 014°46'0 0.2
2015-Aug-28 09:33N 35°53' E 014°46'4 3.9
2015-Aug-28 08:33N 35°52' E 014°50'  
Track history (hours):
 
Tides and Currents Weather Stations Pressure Air Temp Water Temp Dewpoint Dewpoint Depression Visibility Wind Speed Wind Dir Waves Ship Positions

Leandra

Last reported at 2015-Sep-04 13:27 UTC. Time now 2015-Sep-05 10:18 UTC.
Position N 37°00' E 003°09'.

Length 146 m; draft 5.9 m.

Type: Cargo ship. MMSI: 305375000.

Date/timePositionNaut miles runAvg speedWind from/ knotsBaromVisibWave heightAir tempDewpointWater temp
2015-Sep-04 13:27N 37°00' E 003°09'177 4.3
2015-Sep-02 20:31N 35°51' W 000°14'16 3.7
2015-Sep-02 16:13N 35°56' E 000°05'2 0.1
2015-Sep-01 12:30N 35°58' E 000°04'69 4.8
2015-Aug-31 22:17N 36°49' E 001°01'912.0
2015-Aug-31 21:33N 36°50' E 001°12'2512.3
2015-Aug-31 19:32N 36°54' E 001°43'1312.9
2015-Aug-31 18:33N 36°56' E 001°58'1312.8
2015-Aug-31 17:33N 36°57' E 002°14'1212.3
2015-Aug-31 16:33N 36°59' E 002°29'1212.1
2015-Aug-31 15:34N 37°01' E 002°44'1212.0
2015-Aug-31 14:33N 37°02' E 002°59'1211.9
2015-Aug-31 13:33N 37°04' E 003°14'1211.8
2015-Aug-31 12:31N 37°06' E 003°29'1312.1
2015-Aug-31 11:28N 37°08' E 003°45'1111.8
2015-Aug-31 10:33N 37°09' E 003°58'1211.7
2015-Aug-31 09:31N 37°11' E 004°13'7511.9
2015-Aug-31 03:13N 37°22' E 005°46'11612.0
2015-Aug-30 17:32N 37°38' E 008°11'1212.3
2015-Aug-30 16:33N 37°40' E 008°26'1212.1
2015-Aug-30 15:33N 37°41' E 008°41'1212.1
2015-Aug-30 14:32N 37°43' E 008°57'1212.2
2015-Aug-30 13:32N 37°42' E 009°12'1212.2
2015-Aug-30 12:33N 37°41' E 009°28'1212.1
2015-Aug-30 11:33N 37°40' E 009°43'1211.7
2015-Aug-30 10:33N 37°40' E 009°58'1211.6
2015-Aug-30 09:33N 37°39' E 010°12'1211.7
2015-Aug-30 08:33N 37°36' E 010°26'1211.7
2015-Aug-30 07:33N 37°34' E 010°41'1111.4
2015-Aug-30 06:33N 37°31' E 010°55'2511.5
2015-Aug-30 04:21N 37°21' E 011°24'1012.0
2015-Aug-30 03:32N 37°17' E 011°35'1212.0
2015-Aug-30 02:33N 37°11' E 011°48'1211.7
2015-Aug-30 01:33N 37°05' E 012°01'1111.4
2015-Aug-30 00:33N 36°58' E 012°12'1311.4
2015-Aug-29 23:24N 36°51' E 012°26'1011.7
2015-Aug-29 22:33N 36°45' E 012°36'1211.7
2015-Aug-29 21:31N 36°38' E 012°48'1411.9
2015-Aug-29 20:19N 36°29' E 013°02'2511.9
2015-Aug-29 18:14N 36°15' E 013°27'1011.9
2015-Aug-29 17:25N 36°09' E 013°37'1011.6
2015-Aug-29 16:33N 36°03' E 013°47'1211.6
2015-Aug-29 15:33N 35°56' E 013°59'1211.7
2015-Aug-29 14:33N 35°49' E 014°10'1211.5
2015-Aug-29 13:33N 35°43' E 014°23'10 9.5
2015-Aug-29 12:29N 35°47' E 014°34'1 1.3
2015-Aug-29 11:33N 35°47' E 014°36'6 5.5
2015-Aug-29 10:33N 35°50' E 014°41'6 5.4
2015-Aug-29 09:32N 35°54' E 014°46'0 0.0
2015-Aug-29 08:32N 35°54' E 014°46'0 0.0
2015-Aug-29 07:32N 35°54' E 014°46'0 0.0
2015-Aug-29 06:32N 35°54' E 014°46'0 0.0
2015-Aug-29 05:32N 35°54' E 014°46'0 0.0
2015-Aug-29 04:32N 35°54' E 014°46'0 0.0
2015-Aug-29 03:29N 35°54' E 014°46'0 0.0
2015-Aug-29 02:29N 35°54' E 014°46'0 0.0
2015-Aug-29 01:32N 35°54' E 014°46'0 0.0
2015-Aug-29 00:32N 35°54' E 014°46'0 0.0
2015-Aug-28 23:32N 35°54' E 014°46'0 0.0
2015-Aug-28 22:32N 35°54' E 014°46'0 0.0
2015-Aug-28 21:31N 35°54' E 014°46'0 0.0
2015-Aug-28 20:31N 35°54' E 014°46'0 0.1
2015-Aug-28 19:31N 35°54' E 014°46'0 0.0
2015-Aug-28 18:31N 35°54' E 014°46'0 0.0
2015-Aug-28 17:31N 35°54' E 014°46'0 0.0
2015-Aug-28 16:31N 35°54' E 014°46'0 0.0
2015-Aug-28 15:31N 35°54' E 014°46'0 0.0
2015-Aug-28 14:31N 35°54' E 014°46'0 0.0
2015-Aug-28 13:31N 35°54' E 014°46'0 0.0
2015-Aug-28 12:31N 35°54' E 014°46'0 0.0
2015-Aug-28 11:31N 35°54' E 014°46'0 0.0
2015-Aug-28 10:31N 35°54' E 014°46'0 0.2
2015-Aug-28 09:33N 35°53' E 014°46'4 3.9
2015-Aug-28 08:33N 35°52' E 014°50'  

Dump ship's entire track history